Country
Station

 

Weather  for  Sandakan  -  Malaysia    Malaysia

  
27 °C (81 °F)
    
 
 

Current METAR for Sandakan is :

WBKS 192300Z 03011KT 360V060 9999 FEW010 FEW016CB BKN280 27/25 Q1010

 

This is a report for Sandakan - Malaysia.
 
The report was made 54 minutes ago, at 23:00 UTC .
The wind was blowing at a speed of 5.7 meters per second (12.7 miles per hour) from north/northeast (030°), varying between north (360°) and east/northeast (060°).
 
The temperature was 27 °C (81 °F), with a dew-point at 25 °C (77 °F).
The temperature felt like 31 °C (88 °F).
 
The atmospheric pressure was 1010 hPa (29.83 inHg).
The relative humidity was 88.8%.
 
There were a few clouds at a height of 305 meters (1000 feet), a few cumulonimbus clouds at a height of 488 meters (1600 feet) and broken clouds at a height of 8534 meters (28000 feet).
 
The overall visibility was greater than 10 kilometers (6.2 miles).
 

 
 
 
 

Country :   A   B   C   D   E   F   G   H   I   J   K   L   M   N   O   P   Q   R   S   T   U   V   W   Y   Z

 

Site Info  |  Disclaimer  |  Credits  |  Privacy
Contact us  |  Add to favorites
© 2013-2019 METARs - All rights reserved